Latest Weather Observations for Banana Bank

IDQ60901

Issued at 4:41 pm EST Saturday 28 January 2023 (issued every 10 minutes, with the page automatically refreshed every 10 minutes)

About weather observations | Map of Brisbane area stations | Latest observations for Brisbane area | Other Formats
Station Details ID: 040925 Name: BANANA BANK NORTH BEACON Lat: -27.53 Lon: 153.33 Height: 7.0 m
Data from the previous 72 hours. | See also: Recent months at Banana Bank
Date/Time
EST
Temp
°C
App
Temp
°C
Dew
Point
°C
Rel
Hum
%
Delta-T
°C
Wind Press
QNH
hPa
Press
MSL
hPa
Rain since
9am
mm
Dir  Spd
km/h
Gust
km/h
Spd
kts
Gust
kts
28/04:30pm - - - - - E 7 11 4 6 - - -
28/04:00pm - - - - - ENE 13 13 7 7 - - -
28/03:30pm - - - - - E 9 11 5 6 - - -
28/03:00pm - - - - - E 9 13 5 7 - - -
28/02:30pm - - - - - ENE 7 9 4 5 - - -
28/02:00pm - - - - - N 7 11 4 6 - - -
28/01:30pm - - - - - N 11 15 6 8 - - -
28/01:00pm - - - - - N 15 17 8 9 - - -
28/12:30pm - - - - - N 13 15 7 8 - - -
28/12:00pm - - - - - N 11 13 6 7 - - -
28/11:30am - - - - - N 13 15 7 8 - - -
28/11:00am - - - - - N 9 13 5 7 - - -
28/10:30am - - - - - NNW 9 11 5 6 - - -
28/10:00am - - - - - N 7 9 4 5 - - -
28/09:30am - - - - - CALM 0 0 0 0 - - -
28/09:00am - - - - - NNW 6 11 3 6 - - -
28/08:30am - - - - - E 4 6 2 3 - - -
28/08:00am - - - - - CALM 0 0 0 0 - - -
28/07:30am - - - - - E 2 6 1 3 - - -
28/07:00am - - - - - E 4 4 2 2 - - -
28/06:30am - - - - - E 4 4 2 2 - - -
28/06:00am - - - - - ESE 4 6 2 3 - - -
28/05:30am - - - - - SE 4 4 2 2 - - -
28/05:00am - - - - - ESE 4 6 2 3 - - -
28/04:30am - - - - - ESE 4 6 2 3 - - -
28/04:00am - - - - - ESE 6 6 3 3 - - -
28/03:30am - - - - - ESE 9 11 5 6 - - -
28/03:00am - - - - - SSE 13 15 7 8 - - -
28/02:30am - - - - - S 13 15 7 8 - - -
28/02:00am - - - - - SSW 11 13 6 7 - - -
28/01:30am - - - - - SW 11 13 6 7 - - -
28/01:00am - - - - - CALM 0 0 0 0 - - -
28/12:30am - - - - - CALM 0 0 0 0 - - -
28/12:00am - - - - - NNE 6 7 3 4 - - -
 
Date/Time
EST
Temp
°C
App
Temp
°C
Dew
Point
°C
Rel
Hum
%
Delta-T
°C
Wind Press
QNH
hPa
Press
MSL
hPa
Rain since
9am
mm
Dir  Spd
km/h
Gust
km/h
Spd
kts
Gust
kts
27/11:30pm - - - - - N 4 6 2 3 - - -
27/11:00pm - - - - - N 2 4 1 2 - - -
27/10:30pm - - - - - NNE 9 11 5 6 - - -
27/10:00pm - - - - - NNE 7 9 4 5 - - -
27/09:30pm - - - - - N 6 7 3 4 - - -
27/09:00pm - - - - - NNE 7 9 4 5 - - -
27/08:30pm - - - - - NE 7 9 4 5 - - -
27/08:00pm - - - - - NE 9 11 5 6 - - -
27/07:30pm - - - - - NE 7 9 4 5 - - -
27/07:00pm - - - - - E 9 13 5 7 - - -
27/06:30pm - - - - - ENE 13 15 7 8 - - -
27/06:00pm - - - - - NNE 20 26 11 14 - - -
27/05:30pm - - - - - NE 11 17 6 9 - - -
27/05:00pm - - - - - ENE 15 17 8 9 - - -
27/04:30pm - - - - - ESE 11 13 6 7 - - -
27/04:00pm - - - - - SE 15 17 8 9 - - -
27/03:30pm - - - - - E 15 20 8 11 - - -
27/03:00pm - - - - - SE 9 9 5 5 - - -
27/02:30pm - - - - - ESE 7 9 4 5 - - -
27/02:00pm - - - - - ESE 7 7 4 4 - - -
27/01:30pm - - - - - SE 9 11 5 6 - - -
27/01:00pm - - - - - SE 9 11 5 6 - - -
27/12:30pm - - - - - SSE 9 9 5 5 - - -
27/12:00pm - - - - - SSE 9 11 5 6 - - -
27/11:30am - - - - - ESE 9 11 5 6 - - -
27/11:00am - - - - - SE 11 15 6 8 - - -
27/10:30am - - - - - SSE 9 13 5 7 - - -
27/10:00am - - - - - S 7 11 4 6 - - -
27/09:30am - - - - - S 6 9 3 5 - - -
27/09:00am - - - - - SSW 9 13 5 7 - - -
27/08:30am - - - - - SSW 13 15 7 8 - - -
27/08:00am - - - - - SSW 11 15 6 8 - - -
27/07:30am - - - - - SSW 15 17 8 9 - - -
27/07:00am - - - - - SSW 17 20 9 11 - - -
27/06:30am - - - - - SW 15 19 8 10 - - -
27/06:00am - - - - - W 9 13 5 7 - - -
27/05:30am - - - - - WNW 13 19 7 10 - - -
27/05:00am - - - - - NNW 19 22 10 12 - - -
27/04:30am - - - - - N 20 24 11 13 - - -
27/04:00am - - - - - N 11 13 6 7 - - -
27/03:30am - - - - - N 13 17 7 9 - - -
27/03:00am - - - - - N 22 26 12 14 - - -
27/02:30am - - - - - N 26 30 14 16 - - -
27/02:00am - - - - - N 26 32 14 17 - - -
27/01:30am - - - - - N 24 28 13 15 - - -
27/01:00am - - - - - N 24 30 13 16 - - -
27/12:30am - - - - - N 26 30 14 16 - - -
27/12:00am - - - - - N 20 24 11 13 - - -
 
Date/Time
EST
Temp
°C
App
Temp
°C
Dew
Point
°C
Rel
Hum
%
Delta-T
°C
Wind Press
QNH
hPa
Press
MSL
hPa
Rain since
9am
mm
Dir  Spd
km/h
Gust
km/h
Spd
kts
Gust
kts
26/11:30pm - - - - - N 22 24 12 13 - - -
26/11:00pm - - - - - N 15 17 8 9 - - -
26/10:30pm - - - - - N 17 19 9 10 - - -
26/10:00pm - - - - - N 19 20 10 11 - - -
26/09:30pm - - - - - N 20 24 11 13 - - -
26/09:00pm - - - - - N 22 26 12 14 - - -
26/08:30pm - - - - - N 22 28 12 15 - - -
26/08:00pm - - - - - N 26 28 14 15 - - -
26/07:30pm - - - - - N 22 24 12 13 - - -
26/07:00pm - - - - - N 22 26 12 14 - - -
26/06:30pm - - - - - NNE 22 30 12 16 - - -
26/06:00pm - - - - - N 26 30 14 16 - - -
26/05:30pm - - - - - NNE 19 22 10 12 - - -
26/05:00pm - - - - - NNE 24 30 13 16 - - -
26/04:30pm - - - - - NNE 26 32 14 17 - - -
26/04:00pm - - - - - NNE 26 30 14 16 - - -
26/03:30pm - - - - - NNE 22 28 12 15 - - -
26/03:00pm - - - - - N 20 24 11 13 - - -
26/02:30pm - - - - - N 22 26 12 14 - - -
26/02:00pm - - - - - N 22 26 12 14 - - -
26/01:30pm - - - - - N 19 24 10 13 - - -
26/01:00pm - - - - - N 19 22 10 12 - - -
26/12:30pm - - - - - N 19 22 10 12 - - -
26/12:00pm - - - - - N 19 20 10 11 - - -
26/11:30am - - - - - N 19 20 10 11 - - -
26/11:00am - - - - - N 15 19 8 10 - - -
26/10:30am - - - - - N 11 13 6 7 - - -
26/10:00am - - - - - NNE 7 9 4 5 - - -
26/09:30am - - - - - N 4 6 2 3 - - -
26/09:00am - - - - - NNW 6 7 3 4 - - -
26/08:30am - - - - - NNW 7 9 4 5 - - -
26/08:00am - - - - - NNW 7 9 4 5 - - -
26/07:30am - - - - - NNW 9 11 5 6 - - -
26/07:00am - - - - - N 7 11 4 6 - - -
26/06:30am - - - - - N 11 15 6 8 - - -
26/06:00am - - - - - NNE 7 9 4 5 - - -
26/05:30am - - - - - NNE 9 9 5 5 - - -
26/05:00am - - - - - NNE 7 9 4 5 - - -
26/04:30am - - - - - NNE 9 11 5 6 - - -
26/04:00am - - - - - NNE 7 11 4 6 - - -
26/03:30am - - - - - NNE 6 7 3 4 - - -
26/03:00am - - - - - NNE 7 9 4 5 - - -
26/02:30am - - - - - NE 6 7 3 4 - - -
26/02:00am - - - - - NE 6 7 3 4 - - -
26/01:30am - - - - - NNE 6 9 3 5 - - -
26/01:00am - - - - - N 15 19 8 10 - - -
26/12:30am - - - - - N 17 19 9 10 - - -
26/12:00am - - - - - N 19 22 10 12 - - -
 
Date/Time
EST
Temp
°C
App
Temp
°C
Dew
Point
°C
Rel
Hum
%
Delta-T
°C
Wind Press
QNH
hPa
Press
MSL
hPa
Rain since
9am
mm
Dir  Spd
km/h
Gust
km/h
Spd
kts
Gust
kts
25/11:30pm - - - - - N 19 24 10 13 - - -
25/11:00pm - - - - - NNE 7 9 4 5 - - -
25/10:30pm - - - - - NNE 9 15 5 8 - - -
25/10:00pm - - - - - N 19 22 10 12 - - -
25/09:30pm - - - - - N 20 24 11 13 - - -
25/09:00pm - - - - - N 20 24 11 13 - - -
25/08:30pm - - - - - N 20 24 11 13 - - -
25/08:00pm - - - - - N 20 24 11 13 - - -
25/07:30pm - - - - - N 24 28 13 15 - - -
25/07:00pm - - - - - N 20 22 11 12 - - -
25/06:30pm - - - - - N 13 17 7 9 - - -
25/06:00pm - - - - - NNE 13 15 7 8 - - -
25/05:30pm - - - - - NNE 17 20 9 11 - - -
25/05:00pm - - - - - NNE 13 15 7 8 - - -

Latest Capital City Observations: Canberra | Sydney | Melbourne | Brisbane | Adelaide | Perth | Hobart | Darwin

Other formats

Comma delimited format used in spreadsheet applications
http://www.bom.gov.au/fwo/IDQ60901/IDQ60901.94591.axf

JavaScript Object Notation format (JSON) in row-major order
http://www.bom.gov.au/fwo/IDQ60901/IDQ60901.94591.json

Data quality

Most of these data are generated automatically and are frequently updated. Quality checks on data are not normally performed. It is possible for incorrect values to appear. Refer to information at About Latest Weather Observations and please check the disclaimer before using these data.